createdAt,value
2022-08-31T00:02:01.960Z,96739.88
2022-08-31T00:04:32.035Z,96735.06
2022-08-31T00:07:00.262Z,96732.94
2022-08-31T00:09:31.099Z,96734.78
2022-08-31T00:11:59.379Z,96734.28
2022-08-31T00:14:28.657Z,96746.94
2022-08-31T00:16:56.971Z,96749.38
2022-08-31T00:19:25.438Z,96753.72
2022-08-31T00:21:53.697Z,96770.44
2022-08-31T00:24:21.922Z,96763.56
2022-08-31T00:26:51.372Z,96781.38
2022-08-31T00:29:19.847Z,96783.06
2022-08-31T00:31:48.230Z,96788.78
2022-08-31T00:34:16.621Z,96796.66
2022-08-31T00:36:47.322Z,96792.63
2022-08-31T00:39:15.936Z,96795.03
2022-08-31T00:41:44.547Z,96789.72
2022-08-31T00:44:15.096Z,96793.53
2022-08-31T00:46:45.222Z,96788.25
2022-08-31T00:49:17.599Z,96804.88
2022-08-31T00:51:50.012Z,96807.03
2022-08-31T00:54:21.473Z,96803.59
2022-08-31T00:56:49.968Z,96795.03
2022-08-31T00:59:21.798Z,96801.19
2022-08-31T01:01:50.585Z,96789.16
2022-08-31T01:04:19.483Z,96785.94
2022-08-31T01:06:49.246Z,96787.81
2022-08-31T01:09:17.945Z,96790.78
2022-08-31T01:11:46.729Z,96790.22
2022-08-31T01:14:15.777Z,96796.38
2022-08-31T01:16:50.788Z,96795.03
2022-08-31T01:19:33.639Z,96786.75
2022-08-31T01:22:14.866Z,96783.47
2022-08-31T01:24:48.670Z,96792.78
2022-08-31T01:27:24.357Z,96794.13
2022-08-31T01:29:54.595Z,96792.28
2022-08-31T01:32:22.755Z,96793.88
2022-08-31T01:34:51.032Z,96791.75
2022-08-31T01:37:19.621Z,96790.41
2022-08-31T01:39:58.956Z,96793.66
2022-08-31T01:42:30.913Z,96782.41
2022-08-31T01:45:02.574Z,96792.00
2022-08-31T01:47:30.718Z,96787.22
2022-08-31T01:49:58.878Z,96781.31
2022-08-31T01:52:28.022Z,96777.06
2022-08-31T01:54:58.514Z,96782.09
2022-08-31T01:57:34.233Z,96782.91
2022-08-31T02:00:34.919Z,96788.78
2022-08-31T02:03:07.868Z,96789.03
2022-08-31T02:05:38.182Z,96794.94
2022-08-31T02:08:09.625Z,96801.06
2022-08-31T02:10:40.029Z,96794.13
2022-08-31T02:13:08.541Z,96801.56
2022-08-31T02:15:39.584Z,96805.06
2022-08-31T02:18:09.565Z,96811.47
2022-08-31T02:20:40.529Z,96803.69
2022-08-31T02:23:08.779Z,96811.19
2022-08-31T02:25:38.348Z,96801.84
2022-08-31T02:28:06.436Z,96798.34
2022-08-31T02:30:34.737Z,96796.53
2022-08-31T02:33:03.237Z,96802.38
2022-08-31T02:35:31.915Z,96802.09
2022-08-31T02:38:01.409Z,96792.47
2022-08-31T02:40:30.649Z,96793.56
2022-08-31T02:43:00.222Z,96799.97
2022-08-31T02:45:28.671Z,96796.72
2022-08-31T02:48:04.110Z,96795.66
2022-08-31T02:50:42.049Z,96804.75
2022-08-31T02:53:10.784Z,96796.22
2022-08-31T02:55:39.946Z,96809.59
2022-08-31T02:58:09.768Z,96802.06
2022-08-31T03:00:39.763Z,96804.75
2022-08-31T03:03:08.163Z,96797.81
2022-08-31T03:05:36.523Z,96802.66
2022-08-31T03:08:05.326Z,96800.50
2022-08-31T03:10:33.644Z,96792.72
2022-08-31T03:13:02.347Z,96791.66
2022-08-31T03:15:32.125Z,96779.38
2022-08-31T03:18:06.721Z,96782.56
2022-08-31T03:20:36.033Z,96786.03
2022-08-31T03:23:04.814Z,96776.41
2022-08-31T03:25:34.036Z,96784.41
2022-08-31T03:28:03.103Z,96776.94
2022-08-31T03:30:35.980Z,96765.75
2022-08-31T03:33:09.505Z,96769.75
2022-08-31T03:35:43.594Z,96772.97
2022-08-31T03:38:12.846Z,96771.84
2022-08-31T03:40:41.774Z,96768.88
2022-08-31T03:43:11.380Z,96768.09
2022-08-31T03:45:43.885Z,96772.88
2022-08-31T03:48:13.430Z,96767.25
2022-08-31T03:50:45.136Z,96780.88
2022-08-31T03:53:25.738Z,96783.56
2022-08-31T03:56:01.665Z,96788.31
2022-08-31T03:58:33.213Z,96787.03
2022-08-31T04:01:04.088Z,96779.56
2022-08-31T04:03:52.235Z,96796.31
2022-08-31T04:06:40.253Z,96791.81
2022-08-31T04:09:26.798Z,96787.28
2022-08-31T04:12:23.897Z,96790.81
2022-08-31T04:14:55.444Z,96784.38
2022-08-31T04:17:48.705Z,96792.66
2022-08-31T04:20:41.419Z,96787.56
2022-08-31T04:23:11.188Z,96787.56
2022-08-31T04:25:47.225Z,96799.31
2022-08-31T04:28:15.421Z,96794.97
2022-08-31T04:30:45.048Z,96787.78
2022-08-31T04:33:18.868Z,96799.78
2022-08-31T04:35:49.958Z,96792.84
2022-08-31T04:38:18.350Z,96794.47
2022-08-31T04:40:47.410Z,96803.25
2022-08-31T04:43:15.734Z,96798.16
2022-08-31T04:45:46.184Z,96801.34
2022-08-31T04:48:15.098Z,96799.22
2022-08-31T04:50:45.559Z,96792.28
2022-08-31T04:53:13.924Z,96793.31
2022-08-31T04:55:43.260Z,96803.50
2022-08-31T04:58:13.845Z,96804.81
2022-08-31T05:00:44.409Z,96800.56
2022-08-31T05:03:37.799Z,96796.28
2022-08-31T05:06:12.939Z,96803.97
2022-08-31T05:08:41.075Z,96810.66
2022-08-31T05:11:12.338Z,96820.50
2022-08-31T05:13:40.928Z,96829.06
2022-08-31T05:16:12.351Z,96834.94
2022-08-31T05:18:43.028Z,96841.88
2022-08-31T05:21:15.234Z,96839.19
2022-08-31T05:23:46.709Z,96836.22
2022-08-31T05:26:23.514Z,96838.09
2022-08-31T05:28:56.076Z,96835.97
2022-08-31T05:31:28.229Z,96839.25
2022-08-31T05:33:57.867Z,96832.25
2022-08-31T05:36:37.497Z,96840.28
2022-08-31T05:39:11.699Z,96845.13
2022-08-31T05:41:41.043Z,96837.41
2022-08-31T05:44:09.752Z,96841.91
2022-08-31T05:46:41.403Z,96843.06
2022-08-31T05:49:10.917Z,96849.94
2022-08-31T05:51:41.094Z,96847.78
2022-08-31T05:54:10.748Z,96848.88
2022-08-31T05:56:41.564Z,96848.31
2022-08-31T05:59:11.500Z,96847.03
2022-08-31T06:01:41.566Z,96858.50
2022-08-31T06:04:27.053Z,96855.28
2022-08-31T06:06:57.227Z,96858.47
2022-08-31T06:09:29.414Z,96865.38
2022-08-31T06:11:57.726Z,96867.41
2022-08-31T06:14:25.858Z,96877.53
2022-08-31T06:16:56.707Z,96867.69
2022-08-31T06:19:25.841Z,96873.34
2022-08-31T06:21:57.374Z,96873.84
2022-08-31T06:24:28.633Z,96880.53
2022-08-31T06:26:59.381Z,96886.22
2022-08-31T06:29:35.606Z,96893.66
2022-08-31T06:32:07.999Z,96894.22
2022-08-31T06:34:40.525Z,96900.13
2022-08-31T06:37:18.783Z,96899.09
2022-08-31T06:39:54.549Z,96899.63
2022-08-31T06:42:32.883Z,96895.06
2022-08-31T06:45:03.595Z,96900.47
2022-08-31T06:47:56.264Z,96904.19
2022-08-31T06:50:24.415Z,96906.56
2022-08-31T06:52:55.568Z,96908.22
2022-08-31T06:55:25.834Z,96906.06
2022-08-31T06:58:12.462Z,96906.03
2022-08-31T07:01:08.694Z,96896.94
2022-08-31T07:03:57.533Z,96892.13
2022-08-31T07:06:28.709Z,96889.75
2022-08-31T07:09:03.808Z,96886.59
2022-08-31T07:11:41.015Z,96872.41
2022-08-31T07:14:15.621Z,96873.16
2022-08-31T07:16:46.086Z,96875.91
2022-08-31T07:19:16.228Z,96892.44
2022-08-31T07:21:47.854Z,96891.66
2022-08-31T07:24:24.123Z,96896.16
2022-08-31T07:26:57.831Z,96895.34
2022-08-31T07:29:40.184Z,96893.22
2022-08-31T07:32:13.469Z,96888.72
2022-08-31T07:34:43.979Z,96889.25
2022-08-31T07:37:59.006Z,96892.75
2022-08-31T07:40:50.219Z,96897.00
2022-08-31T07:43:19.188Z,96905.00
2022-08-31T07:45:47.572Z,96913.06
2022-08-31T07:48:21.470Z,96916.03
2022-08-31T07:51:05.673Z,96919.47
2022-08-31T07:53:47.378Z,96920.63
2022-08-31T07:56:34.699Z,96922.19
2022-08-31T07:59:15.192Z,96918.47
2022-08-31T08:01:45.158Z,96918.47
2022-08-31T08:04:25.316Z,96916.63
2022-08-31T08:07:33.729Z,96928.63
2022-08-31T08:10:24.218Z,96920.88
2022-08-31T08:13:07.809Z,96917.69
2022-08-31T08:15:48.551Z,96921.38
2022-08-31T08:18:27.118Z,96924.34
2022-08-31T08:20:59.403Z,96920.13
2022-08-31T08:23:29.121Z,96931.34
2022-08-31T08:26:21.429Z,96925.47
2022-08-31T08:29:22.107Z,96932.97
2022-08-31T08:31:53.002Z,96923.31
2022-08-31T08:34:29.587Z,96927.56
2022-08-31T08:37:01.660Z,96932.38
2022-08-31T08:39:30.301Z,96935.06
2022-08-31T08:42:15.682Z,96936.16
2022-08-31T08:44:45.735Z,96932.63
2022-08-31T08:47:38.499Z,96929.13
2022-08-31T08:50:09.018Z,96932.88
2022-08-31T08:52:43.282Z,96931.41
2022-08-31T08:55:16.775Z,96938.09
2022-08-31T08:57:52.282Z,96939.91
2022-08-31T09:00:25.392Z,96946.63
2022-08-31T09:03:02.150Z,96949.25
2022-08-31T09:06:02.839Z,96949.81
2022-08-31T09:09:09.452Z,96962.28
2022-08-31T09:11:55.402Z,96960.19
2022-08-31T09:14:39.244Z,96953.53
2022-08-31T09:17:17.995Z,96961.59
2022-08-31T09:20:01.675Z,96966.94
2022-08-31T09:22:35.035Z,96967.59
2022-08-31T09:25:04.527Z,96969.66
2022-08-31T09:27:58.137Z,96965.75
2022-08-31T09:30:52.159Z,96966.53
2022-08-31T09:33:24.947Z,96964.97
2022-08-31T09:35:56.820Z,96956.97
2022-08-31T09:38:31.412Z,96951.09
2022-08-31T09:41:02.078Z,96958.50
2022-08-31T09:43:38.571Z,96962.84
2022-08-31T09:46:12.627Z,96958.19
2022-08-31T09:48:51.328Z,96959.59
2022-08-31T09:51:28.175Z,96962.84
2022-08-31T09:54:17.998Z,96960.69
2022-08-31T09:56:55.432Z,96963.63
2022-08-31T09:59:41.888Z,96965.53
2022-08-31T10:02:28.646Z,96962.34
2022-08-31T10:05:03.830Z,96972.56
2022-08-31T10:07:43.150Z,96967.22
2022-08-31T10:10:24.269Z,96974.19
2022-08-31T10:13:04.361Z,96963.81
2022-08-31T10:15:41.139Z,96968.84
2022-08-31T10:18:16.012Z,96969.94
2022-08-31T10:20:55.901Z,96972.09
2022-08-31T10:23:34.716Z,96967.84
2022-08-31T10:26:09.036Z,96968.66
2022-08-31T10:28:44.802Z,96968.31
2022-08-31T10:31:22.303Z,96959.53
2022-08-31T10:34:18.151Z,96967.75
2022-08-31T10:36:50.147Z,96972.84
2022-08-31T10:39:29.525Z,96969.66
2022-08-31T10:42:04.227Z,96971.75
2022-08-31T10:44:42.137Z,96973.09
2022-08-31T10:47:32.609Z,96976.84
2022-08-31T10:50:04.690Z,96977.09
2022-08-31T10:52:43.939Z,96975.34
2022-08-31T10:55:23.475Z,96963.81
2022-08-31T10:57:59.093Z,96977.69
2022-08-31T11:00:42.545Z,96966.75
2022-08-31T11:03:22.179Z,96975.28
2022-08-31T11:06:00.307Z,96975.09
2022-08-31T11:08:49.939Z,96976.94
2022-08-31T11:11:27.429Z,96974.78
2022-08-31T11:14:17.967Z,96973.75
2022-08-31T11:17:20.431Z,96978.81
2022-08-31T11:20:21.345Z,96972.13
2022-08-31T11:23:42.214Z,96968.94
2022-08-31T11:26:52.861Z,96965.47
2022-08-31T11:29:35.471Z,96968.16
2022-08-31T11:32:16.737Z,96969.00
2022-08-31T11:34:51.420Z,96958.84
2022-08-31T11:37:52.266Z,96966.88
2022-08-31T11:41:03.028Z,96965.25
2022-08-31T11:43:51.949Z,96963.91
2022-08-31T11:47:05.793Z,96960.16
2022-08-31T11:49:44.852Z,96957.69
2022-08-31T11:52:43.301Z,96960.13
2022-08-31T11:55:31.336Z,96955.63
2022-08-31T11:58:25.926Z,96954.56
2022-08-31T12:01:03.073Z,96959.34
2022-08-31T12:03:51.369Z,96942.53
2022-08-31T12:07:09.128Z,96947.59
2022-08-31T12:10:03.365Z,96943.88
2022-08-31T12:12:49.457Z,96936.16
2022-08-31T12:15:27.691Z,96944.44
2022-08-31T12:18:18.714Z,96930.25
2022-08-31T12:21:16.956Z,96935.97
2022-08-31T12:24:03.601Z,96939.13
2022-08-31T12:26:52.818Z,96936.69
2022-08-31T12:29:29.368Z,96937.03
2022-08-31T12:32:24.082Z,96935.91
2022-08-31T12:35:05.776Z,96933.75
2022-08-31T12:37:37.246Z,96927.41
2022-08-31T12:40:14.913Z,96925.28
2022-08-31T12:43:01.495Z,96922.59
2022-08-31T12:46:31.945Z,96933.59
2022-08-31T12:49:22.925Z,96925.56
2022-08-31T12:52:01.287Z,96923.97
2022-08-31T12:55:23.475Z,96919.19
2022-08-31T12:58:11.449Z,96929.06
2022-08-31T13:00:43.416Z,96923.19
2022-08-31T13:03:22.419Z,96917.28
2022-08-31T13:06:08.301Z,96922.63
2022-08-31T13:08:43.616Z,96917.31
2022-08-31T13:11:20.836Z,96917.59
2022-08-31T13:13:52.835Z,96916.81
2022-08-31T13:16:21.890Z,96911.97
2022-08-31T13:19:05.364Z,96916.28
2022-08-31T13:21:34.578Z,96914.13
2022-08-31T13:24:11.608Z,96919.75
2022-08-31T13:26:39.768Z,96917.88
2022-08-31T13:29:10.066Z,96911.72
2022-08-31T13:31:50.058Z,96906.91
2022-08-31T13:34:19.207Z,96913.06
2022-08-31T13:36:53.716Z,96904.50
2022-08-31T13:39:28.726Z,96898.63
2022-08-31T13:42:05.899Z,96900.22
2022-08-31T13:44:39.918Z,96900.47
2022-08-31T13:47:23.103Z,96889.53
2022-08-31T13:49:55.829Z,96895.41
2022-08-31T13:52:29.180Z,96892.19
2022-08-31T13:55:05.448Z,96889.50
2022-08-31T13:57:35.845Z,96886.06
2022-08-31T14:00:34.352Z,96887.63
2022-08-31T14:03:45.611Z,96893.28
2022-08-31T14:06:24.614Z,96885.50
2022-08-31T14:09:00.236Z,96885.25
2022-08-31T14:11:29.765Z,96886.59
2022-08-31T14:14:07.442Z,96885.53
2022-08-31T14:16:38.761Z,96882.59
2022-08-31T14:19:10.654Z,96879.91
2022-08-31T14:21:42.060Z,96883.09
2022-08-31T14:24:12.193Z,96878.53
2022-08-31T14:26:44.798Z,96879.38
2022-08-31T14:29:15.921Z,96882.03
2022-08-31T14:31:48.572Z,96873.19
2022-08-31T14:34:24.846Z,96878.81
2022-08-31T14:37:02.179Z,96874.25
2022-08-31T14:39:32.835Z,96869.16
2022-08-31T14:42:08.127Z,96868.38
2022-08-31T14:44:42.048Z,96870.50
2022-08-31T14:47:11.641Z,96878.25
2022-08-31T14:49:41.114Z,96868.38
2022-08-31T14:52:09.462Z,96867.56
2022-08-31T14:54:38.179Z,96861.13
2022-08-31T14:57:12.695Z,96864.31
2022-08-31T15:02:16.268Z,96857.63
2022-08-31T15:04:45.321Z,96858.44
2022-08-31T15:07:15.619Z,96856.00
2022-08-31T15:09:46.723Z,96862.41
2022-08-31T15:12:16.641Z,96854.91
2022-08-31T15:14:47.120Z,96849.53
2022-08-31T15:17:19.190Z,96847.91
2022-08-31T15:19:50.577Z,96841.19
2022-08-31T15:22:19.414Z,96844.41
2022-08-31T15:24:48.003Z,96838.25
2022-08-31T15:27:18.253Z,96838.25
2022-08-31T15:29:50.883Z,96837.94
2022-08-31T15:32:19.196Z,96839.53
2022-08-31T15:34:56.828Z,96845.72
2022-08-31T15:37:27.287Z,96836.84
2022-08-31T15:40:00.692Z,96835.22
2022-08-31T15:42:31.364Z,96836.81
2022-08-31T15:45:00.336Z,96832.00
2022-08-31T15:47:50.021Z,96830.66
2022-08-31T15:50:23.189Z,96836.28
2022-08-31T15:52:56.167Z,96838.41
2022-08-31T15:55:26.525Z,96828.22
2022-08-31T15:57:59.305Z,96832.75
2022-08-31T16:00:32.716Z,96827.94
2022-08-31T16:03:02.084Z,96823.38
2022-08-31T16:05:34.992Z,96823.13
2022-08-31T16:08:04.165Z,96826.59
2022-08-31T16:10:32.429Z,96821.78
2022-08-31T16:13:03.137Z,96822.84
2022-08-31T16:15:33.064Z,96825.25
2022-08-31T16:18:05.767Z,96819.34
2022-08-31T16:20:34.935Z,96818.28
2022-08-31T16:23:07.041Z,96818.75
2022-08-31T16:25:48.240Z,96807.81
2022-08-31T16:28:20.483Z,96815.03
2022-08-31T16:30:51.394Z,96816.66
2022-08-31T16:33:20.552Z,96804.84
2022-08-31T16:35:48.853Z,96805.94
2022-08-31T16:38:17.043Z,96811.84
2022-08-31T16:40:45.599Z,96813.47
2022-08-31T16:43:20.206Z,96811.06
2022-08-31T16:45:48.348Z,96818.59
2022-08-31T16:48:34.185Z,96810.81
2022-08-31T16:51:02.660Z,96807.59
2022-08-31T16:53:32.470Z,96812.97
2022-08-31T16:56:03.077Z,96809.78
2022-08-31T16:58:51.239Z,96811.69
2022-08-31T17:01:23.929Z,96809.00
2022-08-31T17:03:55.873Z,96818.38
2022-08-31T17:06:24.866Z,96819.19
2022-08-31T17:08:57.357Z,96819.72
2022-08-31T17:11:31.394Z,96822.41
2022-08-31T17:14:04.226Z,96824.28
2022-08-31T17:16:36.238Z,96817.34
2022-08-31T17:19:08.363Z,96818.41
2022-08-31T17:21:49.452Z,96818.19
2022-08-31T17:24:21.752Z,96813.34
2022-08-31T17:26:51.916Z,96816.88
2022-08-31T17:29:23.533Z,96817.16
2022-08-31T17:31:53.385Z,96816.59
2022-08-31T17:34:26.892Z,96828.41
2022-08-31T17:36:58.499Z,96824.97
2022-08-31T17:39:28.062Z,96823.91
2022-08-31T17:41:57.937Z,96822.28
2022-08-31T17:44:30.968Z,96824.72
2022-08-31T17:47:01.612Z,96823.91
2022-08-31T17:49:32.024Z,96834.34
2022-08-31T17:52:08.444Z,96827.69
2022-08-31T17:54:40.243Z,96828.50
2022-08-31T17:57:11.582Z,96822.88
2022-08-31T17:59:43.858Z,96825.81
2022-08-31T18:02:16.063Z,96831.94
2022-08-31T18:04:45.122Z,96835.44
2022-08-31T18:07:13.627Z,96835.19
2022-08-31T18:09:45.466Z,96833.84
2022-08-31T18:12:15.279Z,96840.78
2022-08-31T18:14:45.280Z,96846.41
2022-08-31T18:17:17.156Z,96845.34
2022-08-31T18:19:46.011Z,96850.44
2022-08-31T18:22:14.861Z,96854.97
2022-08-31T18:24:43.838Z,96858.72
2022-08-31T18:27:15.084Z,96859.50
2022-08-31T18:29:46.053Z,96859.00
2022-08-31T18:32:15.059Z,96855.75
2022-08-31T18:34:46.212Z,96856.28
2022-08-31T18:37:16.416Z,96857.88
2022-08-31T18:39:59.592Z,96857.56
2022-08-31T18:42:47.280Z,96858.63
2022-08-31T18:45:18.279Z,96858.88
2022-08-31T18:48:07.046Z,96858.88
2022-08-31T18:50:37.520Z,96858.59
2022-08-31T18:53:11.184Z,96865.81
2022-08-31T18:55:44.044Z,96863.16
2022-08-31T18:58:12.702Z,96866.88
2022-08-31T19:00:42.883Z,96864.22
2022-08-31T19:03:11.206Z,96864.50
2022-08-31T19:05:41.174Z,96866.09
2022-08-31T19:08:09.335Z,96862.59
2022-08-31T19:10:37.535Z,96862.53
2022-08-31T19:13:07.668Z,96870.28
2022-08-31T19:15:41.300Z,96861.97
2022-08-31T19:18:09.594Z,96865.44
2022-08-31T19:20:38.485Z,96861.69
2022-08-31T19:23:08.105Z,96855.53
2022-08-31T19:25:43.342Z,96857.66
2022-08-31T19:28:12.321Z,96850.69
2022-08-31T19:30:47.586Z,96853.88
2022-08-31T19:33:16.222Z,96855.72
2022-08-31T19:35:45.073Z,96867.97
2022-08-31T19:38:14.188Z,96858.34
2022-08-31T19:40:42.487Z,96864.78
2022-08-31T19:46:16.225Z,96851.16
2022-08-31T19:48:46.089Z,96863.38
2022-08-31T19:51:16.558Z,96863.88
2022-08-31T19:53:46.044Z,96859.34
2022-08-31T19:56:17.552Z,96850.78
2022-08-31T19:58:48.324Z,96847.31
2022-08-31T20:01:19.638Z,96849.44
2022-08-31T20:03:49.136Z,96845.97
2022-08-31T20:06:20.724Z,96828.34
2022-08-31T20:08:50.899Z,96837.69
2022-08-31T20:11:24.726Z,96848.03
2022-08-31T20:13:53.198Z,96841.91
2022-08-31T20:16:24.492Z,96835.53
2022-08-31T20:19:05.917Z,96833.94
2022-08-31T20:21:35.628Z,96833.94
2022-08-31T20:24:07.608Z,96830.50
2022-08-31T20:26:47.436Z,96832.34
2022-08-31T20:29:21.414Z,96835.53
2022-08-31T20:31:55.219Z,96838.22
2022-08-31T20:34:28.715Z,96838.69
2022-08-31T20:37:01.310Z,96842.69
2022-08-31T20:39:32.388Z,96841.59
2022-08-31T20:42:03.050Z,96839.50
2022-08-31T20:44:34.743Z,96843.44
2022-08-31T20:47:25.970Z,96837.84
2022-08-31T20:49:56.185Z,96841.53
2022-08-31T20:52:27.341Z,96844.97
2022-08-31T20:55:01.792Z,96842.31
2022-08-31T20:57:32.768Z,96845.47
2022-08-31T21:00:02.805Z,96843.84
2022-08-31T21:02:34.325Z,96843.78
2022-08-31T21:07:52.294Z,96844.34
2022-08-31T21:10:36.090Z,96844.34
2022-08-31T21:13:09.034Z,96841.59
2022-08-31T21:15:42.741Z,96850.66
2022-08-31T21:18:15.993Z,96848.25
2022-08-31T21:20:44.873Z,96841.03
2022-08-31T21:23:13.301Z,96845.25
2022-08-31T21:25:43.914Z,96840.44
2022-08-31T21:28:15.572Z,96837.22
2022-08-31T21:30:43.856Z,96839.63
2022-08-31T21:33:13.305Z,96831.09
2022-08-31T21:35:41.355Z,96844.16
2022-08-31T21:38:12.908Z,96842.00
2022-08-31T21:40:49.183Z,96842.72
2022-08-31T21:43:17.482Z,96844.88
2022-08-31T21:45:45.531Z,96844.53
2022-08-31T21:48:14.955Z,96846.16
2022-08-31T21:50:43.141Z,96839.47
2022-08-31T21:53:11.857Z,96844.50
2022-08-31T21:55:39.989Z,96847.94
2022-08-31T21:58:08.028Z,96839.94
2022-08-31T22:00:41.737Z,96840.47
2022-08-31T22:03:10.524Z,96844.97
2022-08-31T22:05:43.393Z,96838.56
2022-08-31T22:08:11.585Z,96849.19
2022-08-31T22:10:42.301Z,96856.84
2022-08-31T22:13:13.045Z,96850.41
2022-08-31T22:15:42.737Z,96851.72
2022-08-31T22:18:58.189Z,96852.81
2022-08-31T22:21:01.736Z,96849.00
2022-08-31T22:23:29.953Z,96849.94
2022-08-31T22:25:57.994Z,96854.66
2022-08-31T22:28:27.511Z,96853.31
2022-08-31T22:30:56.023Z,96858.63
2022-08-31T22:33:24.155Z,96857.53
2022-08-31T22:35:52.229Z,96856.41
2022-08-31T22:38:21.733Z,96859.56
2022-08-31T22:40:50.762Z,96863.06
2022-08-31T22:43:18.942Z,96861.78
2022-08-31T22:45:48.807Z,96862.69
2022-08-31T22:48:17.570Z,96865.69
2022-08-31T22:50:45.770Z,96870.00
2022-08-31T22:53:14.747Z,96857.50
2022-08-31T22:55:44.348Z,96864.44
2022-08-31T22:58:13.681Z,96855.13
2022-08-31T23:00:45.350Z,96863.94
2022-08-31T23:03:14.778Z,96851.09
2022-08-31T23:05:44.028Z,96854.00
2022-08-31T23:08:13.761Z,96857.44
2022-08-31T23:10:42.976Z,96850.56
2022-08-31T23:13:12.409Z,96842.56
2022-08-31T23:15:41.085Z,96848.63
2022-08-31T23:18:10.407Z,96851.81
2022-08-31T23:20:41.749Z,96847.78
2022-08-31T23:23:10.450Z,96837.63
2022-08-31T23:25:40.896Z,96839.94
2022-08-31T23:28:09.653Z,96842.84
2022-08-31T23:30:44.621Z,96833.78
2022-08-31T23:33:12.774Z,96826.56
2022-08-31T23:35:41.044Z,96833.69
2022-08-31T23:38:09.079Z,96823.53
2022-08-31T23:40:37.259Z,96820.63
2022-08-31T23:43:07.923Z,96824.50
2022-08-31T23:45:40.993Z,96824.69
2022-08-31T23:48:09.352Z,96819.97
2022-08-31T23:50:37.559Z,96821.28
2022-08-31T23:53:17.297Z,96814.78
2022-08-31T23:55:46.155Z,96821.34
2022-08-31T23:58:16.089Z,96821.97
